Time;durP1;ratioP1;P1;durP2;ratioP2;P2;SDS_P1;SDS_P2;PMS_P1;PMS_P2;Temp;Humidity;BMP_temperature;BMP_pressure;BME280_temperature;BME280_humidity;BME280_pressure;Samples;Min_cycle;Max_cycle;Signal;HPM_P1;HPM_P2
2021/07/07 00:01:58;;;;;;;0.80;0.70;;;13.30;99.90;;;-143.50;100.00;58913.53;4992905;28;21034;-73
2021/07/07 00:04:28;;;;;;;0.70;0.60;;;13.30;99.90;;;-143.50;100.00;58913.53;4995205;28;21833;-73
2021/07/07 00:06:55;;;;;;;0.80;0.70;;;13.30;99.90;;;-143.50;100.00;58913.53;4995385;28;20454;-74
2021/07/07 00:09:23;;;;;;;0.70;0.70;;;13.20;99.90;;;-143.50;100.00;58913.53;4994568;28;20523;-74
2021/07/07 00:11:50;;;;;;;0.70;0.70;;;13.20;99.90;;;-143.50;100.00;58913.53;4993600;28;20498;-73
2021/07/07 00:14:18;;;;;;;0.70;0.60;;;13.10;99.90;;;-143.50;100.00;58913.53;4995081;28;20475;-74
2021/07/07 00:16:46;;;;;;;0.70;0.67;;;13.20;99.90;;;-143.50;100.00;58913.53;4994426;28;20486;-74
2021/07/07 00:19:13;;;;;;;0.70;0.70;;;13.20;99.90;;;-143.50;100.00;58913.53;4994893;28;20532;-74
2021/07/07 00:21:42;;;;;;;0.70;0.70;;;13.20;99.90;;;-143.50;100.00;58913.53;4994368;28;20437;-73
2021/07/07 00:24:11;;;;;;;0.70;0.60;;;13.10;99.90;;;-143.50;100.00;58913.53;4995020;28;20557;-73
2021/07/07 00:26:39;;;;;;;0.70;0.60;;;13.00;99.90;;;-143.50;100.00;58913.53;4994198;28;20531;-73
2021/07/07 00:29:07;;;;;;;0.70;0.70;;;12.90;99.90;;;-143.50;100.00;58913.53;4995092;28;20485;-74
2021/07/07 00:31:35;;;;;;;0.70;0.60;;;12.90;99.90;;;-143.50;100.00;58913.53;4995040;28;20426;-74
2021/07/07 00:34:02;;;;;;;0.80;0.77;;;12.80;99.90;;;-143.50;100.00;58913.53;4995384;28;21005;-73
2021/07/07 00:36:30;;;;;;;0.80;0.80;;;12.80;99.90;;;-143.50;100.00;58913.53;4993334;28;20456;-74
2021/07/07 00:38:59;;;;;;;0.70;0.70;;;12.70;99.90;;;-143.50;100.00;58913.53;4995273;28;20869;-74
2021/07/07 00:41:27;;;;;;;0.77;0.70;;;12.70;99.90;;;-143.50;100.00;58913.53;4993931;28;20434;-74
2021/07/07 00:43:55;;;;;;;0.70;0.70;;;12.70;99.90;;;-143.50;100.00;58913.53;4993414;28;20446;-73
2021/07/07 00:46:23;;;;;;;0.70;0.60;;;12.70;99.90;;;-143.50;100.00;58913.53;5010721;28;20532;-73
2021/07/07 00:48:50;;;;;;;0.70;0.60;;;12.70;99.90;;;-143.50;100.00;58913.53;5026464;28;20436;-74
2021/07/07 00:51:23;;;;;;;0.70;0.70;;;12.70;99.90;;;-143.50;100.00;58913.53;4994855;28;20444;-74
2021/07/07 00:53:54;;;;;;;0.70;0.70;;;12.70;99.90;;;-143.50;100.00;58913.53;4994840;28;20457;-73
2021/07/07 00:56:23;;;;;;;0.70;0.70;;;12.70;99.90;;;-143.50;100.00;58913.53;5009591;28;20466;-73
2021/07/07 00:58:54;;;;;;;0.70;0.60;;;12.70;99.90;;;-143.50;100.00;58913.53;4994765;28;20463;-74
2021/07/07 01:01:22;;;;;;;0.70;0.60;;;12.70;99.90;;;-143.50;100.00;58913.53;4993738;28;20489;-73
2021/07/07 01:03:50;;;;;;;0.70;0.67;;;12.70;99.90;;;-143.50;100.00;58913.53;4993977;28;20442;-73
2021/07/07 01:06:18;;;;;;;0.70;0.70;;;12.70;99.90;;;-143.50;100.00;58913.53;4994730;28;20443;-74
2021/07/07 01:08:46;;;;;;;0.70;0.60;;;12.80;99.90;;;-143.50;100.00;58913.53;4993440;28;20466;-74
2021/07/07 01:11:14;;;;;;;0.70;0.60;;;12.90;99.90;;;-143.50;100.00;58913.53;4991731;28;20481;-73
2021/07/07 01:13:43;;;;;;;0.70;0.67;;;12.90;99.90;;;-143.50;100.00;58913.53;4994365;28;20419;-74
2021/07/07 01:16:11;;;;;;;0.80;0.70;;;12.90;99.90;;;-143.50;100.00;58913.53;5009651;28;20469;-74
2021/07/07 01:18:39;;;;;;;0.70;0.70;;;12.90;99.90;;;-143.50;100.00;58913.53;4994635;28;20474;-74
2021/07/07 01:21:06;;;;;;;0.70;0.60;;;13.00;99.90;;;-143.50;100.00;58913.53;4994269;28;20468;-74
2021/07/07 01:23:35;;;;;;;0.80;0.70;;;12.90;99.90;;;-143.50;100.00;58913.53;5009198;28;20474;-74
2021/07/07 01:26:04;;;;;;;0.70;0.70;;;12.90;99.90;;;-143.50;100.00;58913.53;4992322;28;21013;-74
2021/07/07 01:28:32;;;;;;;0.70;0.70;;;12.90;99.90;;;-143.50;100.00;58913.53;4993184;28;20416;-74
2021/07/07 01:31:02;;;;;;;0.70;0.60;;;12.90;99.90;;;-143.50;100.00;58913.53;4994810;28;20925;-74
2021/07/07 01:33:31;;;;;;;0.70;0.70;;;12.80;99.90;;;-143.50;100.00;58913.53;4993102;28;20852;-73
2021/07/07 01:35:59;;;;;;;0.70;0.60;;;12.80;99.90;;;-143.50;100.00;58913.53;4991975;28;20454;-73
2021/07/07 01:38:27;;;;;;;0.70;0.60;;;12.80;99.90;;;-143.50;100.00;58913.53;4994127;28;20487;-74
2021/07/07 01:40:57;;;;;;;0.70;0.70;;;12.80;99.90;;;-143.50;100.00;58913.53;4994086;28;20438;-74
2021/07/07 01:43:25;;;;;;;0.70;0.70;;;12.70;99.90;;;-143.50;100.00;58913.53;4993330;28;20798;-73
2021/07/07 01:45:53;;;;;;;0.70;0.70;;;12.70;99.90;;;-143.50;100.00;58913.53;4993285;28;20451;-73
2021/07/07 01:48:21;;;;;;;0.70;0.60;;;12.70;99.90;;;-143.50;100.00;58913.53;4994529;28;20415;-74
2021/07/07 01:50:48;;;;;;;0.70;0.70;;;12.70;99.90;;;-143.50;100.00;58913.53;4993221;28;20438;-74
2021/07/07 01:53:17;;;;;;;0.80;0.70;;;12.70;99.90;;;-143.50;100.00;58913.53;4992520;28;20470;-74
2021/07/07 01:55:44;;;;;;;0.70;0.70;;;12.70;99.90;;;-143.50;100.00;58913.53;4993324;28;20451;-74
2021/07/07 01:58:14;;;;;;;0.80;0.70;;;12.70;99.90;;;-143.50;100.00;58913.53;4992096;28;20535;-74
2021/07/07 02:00:43;;;;;;;0.70;0.70;;;12.70;99.90;;;-143.50;100.00;58913.53;4991802;28;20556;-74
2021/07/07 02:03:10;;;;;;;0.70;0.63;;;12.70;99.90;;;-143.50;100.00;58913.53;4976609;28;21043;-73
2021/07/07 02:05:39;;;;;;;0.70;0.70;;;12.70;99.90;;;-143.50;100.00;58913.53;5009160;28;20952;-74
2021/07/07 02:08:09;;;;;;;0.73;0.70;;;12.70;99.90;;;-143.50;100.00;58913.53;5009174;28;20462;-74
2021/07/07 02:10:38;;;;;;;0.70;0.70;;;12.70;99.90;;;-143.50;100.00;58913.53;4991803;28;20450;-74
2021/07/07 02:13:08;;;;;;;0.80;0.70;;;12.70;99.90;;;-143.50;100.00;58913.53;4991913;28;20434;-74
2021/07/07 02:15:41;;;;;;;0.70;0.60;;;12.70;99.90;;;-143.50;100.00;58913.53;4993134;28;20444;-74
2021/07/07 02:18:10;;;;;;;0.80;0.80;;;12.70;99.90;;;-143.50;100.00;58913.53;4990551;28;20506;-74
2021/07/07 02:20:41;;;;;;;0.80;0.73;;;12.70;99.90;;;-143.50;100.00;58913.53;4991923;28;20435;-73
2021/07/07 02:23:09;;;;;;;0.73;0.70;;;12.80;99.90;;;-143.50;100.00;58913.53;4991534;28;20827;-73
2021/07/07 02:25:43;;;;;;;0.70;0.70;;;12.80;99.90;;;-143.50;100.00;58913.53;4992502;28;20527;-74
2021/07/07 02:28:16;;;;;;;0.80;0.70;;;12.80;99.90;;;-143.50;100.00;58913.53;4991320;28;20420;-73
2021/07/07 02:30:46;;;;;;;0.80;0.80;;;12.80;99.90;;;-143.50;100.00;58913.53;4994074;28;20934;-74
2021/07/07 02:33:14;;;;;;;0.80;0.80;;;12.80;99.90;;;-143.50;100.00;58913.53;4991795;28;20478;-73
2021/07/07 02:35:44;;;;;;;0.80;0.70;;;12.70;99.90;;;-143.50;100.00;58913.53;4993113;28;20831;-73
2021/07/07 02:38:14;;;;;;;0.70;0.60;;;12.70;99.90;;;-143.50;100.00;58913.53;4996709;28;20496;-73
2021/07/07 02:40:46;;;;;;;0.70;0.60;;;12.70;99.90;;;-143.50;100.00;58913.53;4996510;28;20417;-73
2021/07/07 02:43:15;;;;;;;0.80;0.80;;;12.70;99.90;;;-143.50;100.00;58913.53;4997094;28;20417;-73
2021/07/07 02:45:44;;;;;;;0.70;0.60;;;12.80;99.90;;;-143.50;100.00;58913.53;4995758;28;20454;-73
2021/07/07 02:48:13;;;;;;;0.80;0.73;;;12.80;99.90;;;-143.50;100.00;58913.53;4997216;28;20446;-74
2021/07/07 02:50:42;;;;;;;0.70;0.70;;;12.80;99.90;;;-143.50;100.00;58913.53;4996215;28;20491;-74
2021/07/07 02:53:12;;;;;;;0.70;0.60;;;12.80;99.90;;;-143.50;100.00;58913.53;4996906;28;20504;-74
2021/07/07 02:55:41;;;;;;;0.70;0.70;;;12.80;99.90;;;-143.50;100.00;58913.53;4996445;28;20431;-73
2021/07/07 02:58:09;;;;;;;0.80;0.70;;;12.80;99.90;;;-143.50;100.00;58913.53;4994610;28;20914;-73
2021/07/07 03:00:40;;;;;;;0.80;0.80;;;12.80;99.90;;;-143.50;100.00;58913.53;4995777;28;20988;-74
2021/07/07 03:03:10;;;;;;;0.70;0.70;;;12.80;99.90;;;-143.50;100.00;58913.53;4997148;28;20458;-74
2021/07/07 03:05:41;;;;;;;0.80;0.70;;;12.90;99.90;;;-143.50;100.00;58913.53;4996389;28;20446;-73
2021/07/07 03:08:10;;;;;;;0.70;0.70;;;12.90;99.90;;;-143.50;100.00;58913.53;4995662;28;20554;-74
2021/07/07 03:10:39;;;;;;;0.70;0.60;;;12.90;99.90;;;-143.50;100.00;58913.53;4996134;28;20446;-75
2021/07/07 03:13:08;;;;;;;0.80;0.73;;;12.90;99.90;;;-143.50;100.00;58913.53;4996567;28;20930;-74
2021/07/07 03:15:37;;;;;;;0.70;0.60;;;12.90;99.90;;;-143.50;100.00;58913.53;5027834;28;20974;-73
2021/07/07 03:18:08;;;;;;;0.70;0.70;;;12.80;99.90;;;-143.50;100.00;58913.53;4996692;28;21017;-74
2021/07/07 03:20:38;;;;;;;0.70;0.70;;;12.80;99.90;;;-143.50;100.00;58913.53;4995830;28;20899;-74
2021/07/07 03:23:12;;;;;;;0.70;0.70;;;12.80;99.90;;;-143.50;100.00;58913.53;4996340;28;20444;-74
2021/07/07 03:25:39;;;;;;;0.80;0.80;;;12.80;99.90;;;-143.50;100.00;58913.53;4996617;28;20466;-74
2021/07/07 03:28:08;;;;;;;0.70;0.60;;;12.70;99.90;;;-143.50;100.00;58913.53;4994594;28;20449;-73
2021/07/07 03:30:36;;;;;;;0.70;0.70;;;12.70;99.90;;;-143.50;100.00;58913.53;4986048;28;20536;-73
2021/07/07 03:33:05;;;;;;;0.70;0.63;;;12.70;99.90;;;-143.50;100.00;58913.53;4995242;28;20457;-74
2021/07/07 03:35:34;;;;;;;0.70;0.70;;;12.60;99.90;;;-143.50;100.00;58913.53;4996496;28;20461;-74
2021/07/07 03:38:21;;;;;;;0.70;0.70;;;12.60;99.90;;;-143.50;100.00;58913.53;4996599;28;20611;-74
2021/07/07 03:40:50;;;;;;;0.80;0.70;;;12.60;99.90;;;-143.50;100.00;58913.53;4995154;28;20434;-73
2021/07/07 03:43:18;;;;;;;0.80;0.80;;;12.50;99.90;;;-143.50;100.00;58913.53;4992940;28;20603;-73
2021/07/07 03:45:45;;;;;;;0.80;0.80;;;12.50;99.90;;;-143.50;100.00;58913.53;4996007;28;20526;-74
2021/07/07 03:48:14;;;;;;;0.70;0.70;;;12.60;99.90;;;-143.50;100.00;58913.53;5026997;28;20440;-74
2021/07/07 03:50:43;;;;;;;0.70;0.60;;;12.60;99.90;;;-143.50;100.00;58913.53;4996334;28;20414;-74
2021/07/07 03:53:11;;;;;;;0.70;0.70;;;12.60;99.90;;;-143.50;100.00;58913.53;4995841;28;20462;-73
2021/07/07 03:55:38;;;;;;;0.70;0.60;;;12.60;99.90;;;-143.50;100.00;58913.53;4994886;28;20448;-74
2021/07/07 03:58:06;;;;;;;0.70;0.70;;;12.60;99.90;;;-143.50;100.00;58913.53;4995500;28;20496;-74
2021/07/07 04:00:34;;;;;;;0.70;0.60;;;12.60;99.90;;;-143.50;100.00;58913.53;4993508;28;20541;-74
2021/07/07 04:03:02;;;;;;;0.70;0.60;;;12.60;99.90;;;-143.50;100.00;58913.53;4995250;28;21320;-73
2021/07/07 04:05:30;;;;;;;0.70;0.70;;;12.70;99.90;;;-143.50;100.00;58913.53;4995680;28;20506;-74
2021/07/07 04:08:00;;;;;;;0.70;0.60;;;12.70;99.90;;;-143.50;100.00;58913.53;4994780;28;20488;-74
2021/07/07 04:10:28;;;;;;;0.70;0.70;;;12.80;99.90;;;-143.50;100.00;58913.53;4996068;28;20437;-74
2021/07/07 04:12:58;;;;;;;0.80;0.80;;;12.80;99.90;;;-143.50;100.00;58913.53;4994445;28;20449;-74
2021/07/07 04:15:26;;;;;;;0.80;0.70;;;12.90;99.90;;;-143.50;100.00;58913.53;4994498;28;20449;-73
2021/07/07 04:17:54;;;;;;;0.70;0.70;;;13.10;99.90;;;-143.50;100.00;58913.53;4993305;28;20488;-74
2021/07/07 04:20:23;;;;;;;0.70;0.70;;;13.20;99.90;;;-143.50;100.00;58913.53;4995219;28;20800;-73
2021/07/07 04:22:51;;;;;;;0.70;0.70;;;13.20;99.90;;;-143.50;100.00;58913.53;4995524;28;21043;-73
2021/07/07 04:25:21;;;;;;;0.70;0.60;;;13.30;99.90;;;-143.50;100.00;58913.53;4993817;28;20435;-74
2021/07/07 04:27:48;;;;;;;0.70;0.60;;;13.40;99.90;;;-143.50;100.00;58913.53;5010243;28;20435;-74
2021/07/07 04:30:19;;;;;;;0.70;0.70;;;13.50;99.90;;;-143.50;100.00;58913.53;4977901;28;20428;-74
2021/07/07 04:32:48;;;;;;;0.70;0.70;;;13.60;99.90;;;-143.50;100.00;58913.53;4995477;28;20470;-74
2021/07/07 04:35:17;;;;;;;0.70;0.60;;;13.80;99.90;;;-143.50;100.00;58913.53;4993478;28;20849;-74
2021/07/07 04:37:47;;;;;;;0.80;0.70;;;13.90;99.90;;;-143.50;100.00;58913.53;4994785;28;20858;-74
2021/07/07 04:40:18;;;;;;;0.73;0.70;;;14.00;99.90;;;-143.50;100.00;58913.53;4995027;28;20462;-73
2021/07/07 04:42:49;;;;;;;0.70;0.60;;;14.10;99.90;;;-143.50;100.00;58913.53;5025831;28;20439;-74
2021/07/07 04:45:18;;;;;;;0.80;0.80;;;14.10;99.90;;;-143.50;100.00;58913.53;4994803;28;20470;-74
2021/07/07 04:47:45;;;;;;;0.70;0.70;;;14.20;99.90;;;-143.50;100.00;58913.53;4995010;28;20525;-73
2021/07/07 04:50:16;;;;;;;0.70;0.70;;;14.30;99.90;;;-143.50;100.00;58913.53;5009240;28;20459;-74
2021/07/07 04:52:44;;;;;;;0.70;0.60;;;14.40;99.90;;;-143.50;100.00;58913.53;4994205;28;20487;-74
2021/07/07 04:55:13;;;;;;;0.80;0.80;;;14.50;99.90;;;-143.50;100.00;58913.53;4994998;28;20518;-74
2021/07/07 04:57:43;;;;;;;0.70;0.60;;;14.60;99.90;;;-143.50;100.00;58913.53;4994077;28;20779;-73
2021/07/07 05:00:16;;;;;;;0.70;0.67;;;14.70;99.90;;;-143.50;100.00;58913.53;4993355;28;20469;-74
2021/07/07 05:02:47;;;;;;;0.70;0.60;;;14.90;99.90;;;-143.50;100.00;58913.53;4994278;28;20416;-74
2021/07/07 05:05:16;;;;;;;0.70;0.60;;;15.10;99.90;;;-143.50;100.00;58913.53;4974235;28;20440;-74
2021/07/07 05:07:45;;;;;;;0.70;0.60;;;15.30;99.90;;;-143.50;100.00;58913.53;4981977;28;20553;-73
2021/07/07 05:10:14;;;;;;;0.80;0.70;;;15.40;99.90;;;-143.50;100.00;58913.53;5025906;28;20422;-74
2021/07/07 05:12:43;;;;;;;0.73;0.73;;;15.60;99.90;;;-143.50;100.00;58913.53;4993039;28;20452;-73
2021/07/07 05:15:14;;;;;;;0.70;0.67;;;15.70;99.90;;;-143.50;100.00;58913.53;5008535;28;20454;-73
2021/07/07 05:17:44;;;;;;;0.70;0.70;;;15.90;99.90;;;-143.50;100.00;58913.53;4994337;28;20438;-73
2021/07/07 05:20:14;;;;;;;0.70;0.60;;;16.00;99.90;;;-143.50;100.00;58913.53;4992870;28;20463;-74
2021/07/07 05:22:43;;;;;;;0.80;0.70;;;16.20;99.90;;;-143.50;100.00;58913.53;4994485;28;20415;-74
2021/07/07 05:25:13;;;;;;;0.70;0.67;;;16.30;99.90;;;-143.50;100.00;58913.53;4993634;28;20453;-74
2021/07/07 05:27:40;;;;;;;0.70;0.60;;;16.40;99.90;;;-143.50;100.00;58913.53;4991146;28;20449;-73
2021/07/07 05:30:13;;;;;;;0.70;0.70;;;16.50;99.90;;;-143.50;100.00;58913.53;4981433;28;20445;-74
2021/07/07 05:32:41;;;;;;;0.70;0.60;;;16.70;99.90;;;-143.50;100.00;58913.53;5024304;28;20767;-74
2021/07/07 05:35:10;;;;;;;0.80;0.80;;;16.80;99.90;;;-143.50;100.00;58913.53;4994334;28;20441;-74
2021/07/07 05:37:44;;;;;;;0.80;0.77;;;16.90;99.90;;;-143.50;100.00;58913.53;4993468;28;20549;-74
2021/07/07 05:40:15;;;;;;;0.70;0.70;;;17.00;99.90;;;-143.50;100.00;58913.53;4993765;28;20508;-74
2021/07/07 05:42:45;;;;;;;0.70;0.63;;;17.10;99.90;;;-143.50;100.00;58913.53;4991419;28;20446;-73
2021/07/07 05:45:14;;;;;;;0.70;0.60;;;17.30;99.90;;;-143.50;100.00;58913.53;4993645;28;20500;-74
2021/07/07 05:47:42;;;;;;;0.70;0.60;;;17.30;99.90;;;-143.50;100.00;58913.53;4994188;28;20429;-74
2021/07/07 05:50:14;;;;;;;0.80;0.73;;;17.50;99.90;;;-143.50;100.00;58913.53;4994481;28;20469;-74
2021/07/07 05:52:42;;;;;;;0.70;0.60;;;17.60;99.90;;;-143.50;100.00;58913.53;4992885;28;20937;-74
2021/07/07 05:55:12;;;;;;;0.70;0.70;;;17.70;99.90;;;-143.50;100.00;58913.53;4993317;28;20443;-74
2021/07/07 05:57:40;;;;;;;0.70;0.70;;;17.70;99.90;;;-143.50;100.00;58913.53;4992883;28;20452;-74
2021/07/07 06:00:11;;;;;;;0.80;0.70;;;17.90;99.90;;;-143.50;100.00;58913.53;4991064;28;20481;-74
2021/07/07 06:02:41;;;;;;;0.70;0.60;;;18.00;99.90;;;-143.50;100.00;58913.53;4984875;28;20457;-74
2021/07/07 06:05:11;;;;;;;0.80;0.70;;;18.00;99.90;;;-143.50;100.00;58913.53;4977763;28;20549;-74
2021/07/07 06:07:39;;;;;;;0.80;0.60;;;18.10;99.90;;;-143.50;100.00;58913.53;4985521;28;20541;-72
2021/07/07 06:10:09;;;;;;;0.70;0.60;;;18.10;99.90;;;-143.50;100.00;58913.53;4993701;28;20442;-74
2021/07/07 06:12:36;;;;;;;0.80;0.70;;;18.20;99.90;;;-143.50;100.00;58913.53;5004713;28;20463;-73
2021/07/07 06:15:06;;;;;;;0.70;0.60;;;18.30;99.90;;;-143.50;100.00;58913.53;4988890;28;20455;-73
2021/07/07 06:17:34;;;;;;;0.70;0.67;;;18.40;99.90;;;-143.50;100.00;58913.53;4994087;28;20423;-73
2021/07/07 06:20:06;;;;;;;0.70;0.60;;;18.50;99.90;;;-143.50;100.00;58913.53;4993484;28;20458;-74
2021/07/07 06:22:33;;;;;;;0.80;0.70;;;18.70;99.90;;;-143.50;100.00;58913.53;5008545;28;20438;-73
2021/07/07 06:25:05;;;;;;;0.73;0.60;;;18.90;99.90;;;-143.50;100.00;58913.53;4993884;28;20847;-75
2021/07/07 06:27:36;;;;;;;0.70;0.60;;;19.20;99.90;;;-143.50;100.00;58913.53;4992622;28;20506;-74
2021/07/07 06:30:06;;;;;;;0.80;0.60;;;19.30;99.90;;;-143.50;100.00;58913.53;4992857;28;20398;-73
2021/07/07 06:32:33;;;;;;;0.70;0.60;;;19.30;99.90;;;-143.50;100.00;58913.53;4993134;28;20413;-73
2021/07/07 06:35:04;;;;;;;0.70;0.70;;;19.30;99.90;;;-143.50;100.00;58913.53;4993383;28;20959;-73
2021/07/07 06:37:31;;;;;;;0.80;0.70;;;19.30;99.90;;;-143.50;100.00;58913.53;4992437;28;20426;-73
2021/07/07 06:40:01;;;;;;;0.70;0.60;;;19.40;99.90;;;-143.50;100.00;58913.53;4992022;28;20441;-74
2021/07/07 06:42:29;;;;;;;0.80;0.70;;;19.50;99.90;;;-143.50;100.00;58913.53;4993332;28;20481;-74
2021/07/07 06:44:57;;;;;;;0.70;0.60;;;19.60;99.90;;;-143.50;100.00;58913.53;4992857;28;20486;-73
2021/07/07 06:47:25;;;;;;;0.80;0.70;;;19.60;99.90;;;-143.50;100.00;58913.53;4990889;28;20421;-74
2021/07/07 06:49:52;;;;;;;0.80;0.70;;;19.60;99.90;;;-143.50;100.00;58913.53;4991844;28;20505;-74
2021/07/07 06:52:22;;;;;;;1.10;1.00;;;19.60;99.90;;;-143.50;100.00;58913.53;4993418;28;20416;-73
2021/07/07 06:54:49;;;;;;;0.70;0.60;;;19.60;99.90;;;-143.50;100.00;58913.53;4992873;28;20958;-73
2021/07/07 06:57:17;;;;;;;0.70;0.60;;;19.80;99.90;;;-143.50;100.00;58913.53;4987194;28;20423;-73
2021/07/07 06:59:45;;;;;;;0.70;0.60;;;19.90;99.90;;;-143.50;100.00;58913.53;4992286;28;20462;-73
2021/07/07 07:02:12;;;;;;;0.80;0.70;;;20.00;99.90;;;-143.50;100.00;58913.53;4995369;28;20542;-73
2021/07/07 07:04:43;;;;;;;0.70;0.63;;;20.10;99.90;;;-143.50;100.00;58913.53;4972937;28;20415;-74
2021/07/07 07:07:12;;;;;;;0.70;0.60;;;20.20;99.90;;;-143.50;100.00;58913.53;4986444;28;20773;-73
2021/07/07 07:09:41;;;;;;;0.80;0.77;;;20.30;99.90;;;-143.50;100.00;58913.53;5015532;28;20447;-73
2021/07/07 07:12:09;;;;;;;0.70;0.60;;;20.30;99.90;;;-143.50;100.00;58913.53;4992799;28;20426;-72
2021/07/07 07:14:36;;;;;;;0.80;0.60;;;20.40;99.90;;;-143.50;100.00;58913.53;4993052;28;20458;-73
2021/07/07 07:17:04;;;;;;;0.70;0.60;;;20.70;99.90;;;-143.50;100.00;58913.53;4993255;28;20435;-72
2021/07/07 07:19:31;;;;;;;0.73;0.70;;;20.80;99.90;;;-143.50;100.00;58913.53;4992738;28;20433;-73
2021/07/07 07:21:59;;;;;;;0.73;0.60;;;20.90;99.90;;;-143.50;100.00;58913.53;4988041;28;20517;-73
2021/07/07 07:24:30;;;;;;;0.70;0.60;;;20.80;99.90;;;-143.50;100.00;58913.53;4985623;28;21002;-72
2021/07/07 07:26:59;;;;;;;0.80;0.70;;;20.70;99.90;;;-143.50;100.00;58913.53;4979104;28;20786;-73
2021/07/07 07:29:27;;;;;;;0.70;0.60;;;20.40;99.90;;;-143.50;100.00;58913.53;4987251;28;20506;-73
2021/07/07 07:31:54;;;;;;;0.80;0.70;;;20.30;99.90;;;-143.50;100.00;58913.53;4995782;28;20447;-73
2021/07/07 07:34:22;;;;;;;0.70;0.60;;;20.20;99.90;;;-143.50;100.00;58913.53;4996083;28;20429;-73
2021/07/07 07:36:53;;;;;;;0.70;0.60;;;20.00;99.90;;;-143.50;100.00;58913.53;4996452;28;20837;-72
2021/07/07 07:39:24;;;;;;;0.73;0.60;;;20.00;99.90;;;-143.50;100.00;58913.53;4996786;28;21466;-73
2021/07/07 07:41:51;;;;;;;0.80;0.70;;;20.20;99.90;;;-143.50;100.00;58913.53;5009843;28;20433;-72
2021/07/07 07:44:20;;;;;;;0.80;0.70;;;20.30;99.90;;;-143.50;100.00;58913.53;4994985;28;20436;-72
2021/07/07 07:46:49;;;;;;;0.80;0.70;;;20.50;99.90;;;-143.50;100.00;58913.53;4996355;28;20415;-72
2021/07/07 07:49:16;;;;;;;0.70;0.67;;;20.60;99.90;;;-143.50;100.00;58913.53;4996354;28;20430;-72
2021/07/07 07:51:45;;;;;;;0.70;0.60;;;20.90;99.90;;;-143.50;100.00;58913.53;4996272;28;20433;-72
2021/07/07 07:54:12;;;;;;;0.70;0.63;;;21.10;99.90;;;-143.50;100.00;58913.53;4995036;28;20831;-73
2021/07/07 07:56:41;;;;;;;0.80;0.70;;;21.20;99.90;;;-143.50;100.00;58913.53;4994364;28;20476;-71
2021/07/07 07:59:08;;;;;;;0.80;0.70;;;21.30;99.90;;;-143.50;100.00;58913.53;4994171;28;20424;-72
2021/07/07 08:01:38;;;;;;;0.73;0.60;;;21.50;99.90;;;-143.50;100.00;58913.53;4999713;28;20428;-73
2021/07/07 08:04:06;;;;;;;0.70;0.60;;;21.50;99.90;;;-143.50;100.00;58913.53;4996112;28;20438;-74
2021/07/07 08:06:51;;;;;;;2.70;1.13;;;21.50;99.90;;;-143.50;100.00;58913.53;4994161;28;20504;-73
2021/07/07 08:09:19;;;;;;;0.80;0.70;;;21.70;99.90;;;-143.50;100.00;58913.53;4994590;28;20485;-72
2021/07/07 08:11:50;;;;;;;0.70;0.60;;;22.00;99.90;;;-143.50;100.00;58913.53;4994217;28;20431;-72
2021/07/07 08:14:18;;;;;;;0.70;0.60;;;22.20;99.90;;;-143.50;100.00;58913.53;4994095;28;20474;-72
2021/07/07 08:16:53;;;;;;;0.70;0.60;;;22.50;99.90;;;-143.50;100.00;58913.53;4997453;28;20466;-74
2021/07/07 08:19:21;;;;;;;0.70;0.60;;;22.70;99.90;;;-143.50;100.00;58913.53;5001785;28;20442;-72
2021/07/07 08:21:55;;;;;;;0.70;0.60;;;23.00;99.90;;;-143.50;100.00;58913.53;5004655;28;20446;-73
2021/07/07 08:24:40;;;;;;;0.87;0.73;;;23.00;99.90;;;-143.50;100.00;58913.53;4988633;28;20470;-74
2021/07/07 08:27:19;;;;;;;0.70;0.60;;;23.00;99.90;;;-143.50;100.00;58913.53;5002813;28;20435;-74
2021/07/07 08:29:48;;;;;;;0.77;0.70;;;23.10;99.90;;;-143.50;100.00;58913.53;4995818;28;20938;-70
2021/07/07 08:32:17;;;;;;;0.70;0.60;;;23.30;99.90;;;-143.50;100.00;58913.53;4994134;28;20955;-71
2021/07/07 08:34:45;;;;;;;0.70;0.60;;;23.40;99.90;;;-143.50;100.00;58913.53;4993386;28;20446;-71
2021/07/07 08:37:13;;;;;;;0.80;0.70;;;23.50;99.90;;;-143.50;100.00;58913.53;4994591;28;20970;-72
2021/07/07 08:39:41;;;;;;;0.70;0.60;;;23.60;99.90;;;-143.50;100.00;58913.53;4993692;28;20459;-72
2021/07/07 08:42:09;;;;;;;0.70;0.60;;;23.80;99.90;;;-143.50;100.00;58913.53;4994012;28;20963;-71
2021/07/07 08:44:37;;;;;;;0.70;0.60;;;24.00;99.90;;;-143.50;100.00;58913.53;4994289;28;20982;-71
2021/07/07 08:47:06;;;;;;;0.80;0.60;;;24.40;99.90;;;-143.50;100.00;58913.53;4994717;28;20435;-72
2021/07/07 08:49:36;;;;;;;0.70;0.50;;;24.90;99.90;;;-143.50;100.00;58913.53;4995203;28;20446;-73
2021/07/07 08:52:04;;;;;;;0.70;0.50;;;25.30;99.90;;;-143.50;100.00;58913.53;4994952;28;20418;-73
2021/07/07 08:54:33;;;;;;;0.70;0.50;;;25.90;99.90;;;-143.50;100.00;58913.53;4995232;28;20475;-71
2021/07/07 08:57:06;;;;;;;0.70;0.50;;;26.20;99.90;;;-143.50;100.00;58913.53;4994213;28;20958;-72
2021/07/07 08:59:38;;;;;;;0.70;0.50;;;26.50;99.90;;;-143.50;100.00;58913.53;4994951;28;20473;-73
2021/07/07 09:02:08;;;;;;;0.70;0.60;;;26.50;99.90;;;-143.50;100.00;58913.53;4994602;28;20867;-73
2021/07/07 09:04:40;;;;;;;0.70;0.50;;;26.80;99.90;;;-143.50;100.00;58913.53;4994213;28;20450;-72
2021/07/07 09:07:23;;;;;;;0.70;0.50;;;27.10;99.90;;;-143.50;100.00;58913.53;4975981;28;20420;-76
2021/07/07 09:09:53;;;;;;;0.70;0.50;;;27.10;99.90;;;-143.50;100.00;58913.53;4974835;28;20432;-71
2021/07/07 09:12:26;;;;;;;0.70;0.50;;;27.60;99.90;;;-143.50;100.00;58913.53;4978714;28;20431;-73
2021/07/07 09:15:04;;;;;;;0.70;0.50;;;27.90;87.40;;;-143.50;100.00;58913.53;4994020;28;20439;-74
2021/07/07 09:17:38;;;;;;;0.70;0.50;;;28.50;79.50;;;-143.50;100.00;58913.53;4993202;28;20457;-74
2021/07/07 09:20:19;;;;;;;0.70;0.50;;;29.30;60.30;;;-143.50;100.00;58913.53;4975239;28;20562;-73
2021/07/07 09:22:49;;;;;;;1.40;1.27;;;29.20;51.70;;;-143.50;100.00;58913.53;5008489;28;20477;-73
2021/07/07 09:25:27;;;;;;;0.70;0.50;;;28.90;53.40;;;-143.50;100.00;58913.53;4994452;28;20439;-73
2021/07/07 09:27:55;;;;;;;0.70;0.50;;;28.70;44.20;;;-143.50;100.00;58913.53;4993043;28;20777;-73
2021/07/07 09:30:22;;;;;;;0.70;0.50;;;28.70;42.90;;;-143.50;100.00;58913.53;4992912;28;20545;-73
2021/07/07 09:32:51;;;;;;;0.80;0.67;;;29.00;38.70;;;-143.50;100.00;58913.53;4994153;28;20446;-73
2021/07/07 09:35:22;;;;;;;0.70;0.50;;;29.10;38.80;;;-143.50;100.00;58913.53;4994536;28;20415;-73
2021/07/07 09:37:56;;;;;;;0.70;0.50;;;29.60;35.70;;;-143.50;100.00;58913.53;4992985;28;20471;-74
2021/07/07 09:40:24;;;;;;;0.70;0.50;;;29.30;30.20;;;-143.50;100.00;58913.53;4993157;28;20454;-73
2021/07/07 09:42:51;;;;;;;0.70;0.50;;;28.40;32.50;;;-143.50;100.00;58913.53;4994017;28;20407;-73
2021/07/07 09:45:22;;;;;;;0.70;0.50;;;27.80;28.90;;;-143.50;100.00;58913.53;4992443;28;20513;-74
2021/07/07 09:47:50;;;;;;;0.70;0.50;;;26.60;30.60;;;-143.50;100.00;58913.53;4993636;28;20423;-73
2021/07/07 09:50:20;;;;;;;0.70;0.50;;;26.00;33.20;;;-143.50;100.00;58913.53;4976437;28;20955;-74
2021/07/07 09:53:12;;;;;;;0.70;0.50;;;25.70;36.30;;;-143.50;100.00;58913.53;4994330;28;20970;-74
2021/07/07 09:55:41;;;;;;;0.70;0.50;;;25.70;33.70;;;-143.50;100.00;58913.53;4990054;28;20537;-75
2021/07/07 09:58:09;;;;;;;0.70;0.50;;;25.80;33.70;;;-143.50;100.00;58913.53;4992818;28;20470;-74
2021/07/07 10:00:40;;;;;;;0.70;0.50;;;27.10;33.10;;;-143.50;100.00;58913.53;4993561;28;20541;-73
2021/07/07 10:03:07;;;;;;;0.70;0.50;;;28.20;29.70;;;-143.50;100.00;58913.53;4983120;28;20443;-74
2021/07/07 10:05:41;;;;;;;0.70;0.50;;;29.50;26.40;;;-143.50;100.00;58913.53;4992750;28;20435;-73
2021/07/07 10:08:27;;;;;;;0.70;0.50;;;30.50;25.90;;;-143.50;100.00;58913.53;4993855;28;20462;-74
2021/07/07 10:10:56;;;;;;;0.70;0.50;;;31.10;20.10;;;-143.50;100.00;58913.53;4991819;28;20562;-73